Time;durP1;ratioP1;P1;durP2;ratioP2;P2;SDS_P1;SDS_P2;PMS_P1;PMS_P2;Temp;Humidity;BMP_temperature;BMP_pressure;BME280_temperature;BME280_humidity;BME280_pressure;Samples;Min_cycle;Max_cycle;Signal;HPM_P1;HPM_P2
2024/04/07 00:01:35;;;;;;;1.20;0.70;;;;;;;19.36;45.40;100201.47;5032159;28;20661;-81
2024/04/07 00:04:02;;;;;;;2.63;1.33;;;;;;;19.38;45.43;100200.28;5036309;28;20785;-80
2024/04/07 00:06:29;;;;;;;2.10;0.77;;;;;;;19.39;45.46;100199.28;5032918;28;20633;-82
2024/04/07 00:08:56;;;;;;;1.27;1.00;;;;;;;19.42;44.83;100192.72;5044286;28;20210;-80
2024/04/07 00:11:23;;;;;;;1.77;0.80;;;;;;;19.47;44.29;100193.06;5038495;28;20261;-80
2024/04/07 00:13:50;;;;;;;1.20;0.90;;;;;;;19.54;44.49;100193.28;5043871;28;20644;-82
2024/04/07 00:16:30;;;;;;;0.80;0.77;;;;;;;19.59;44.29;100194.47;5036258;28;20211;-81
2024/04/07 00:19:23;;;;;;;1.30;0.60;;;;;;;19.65;44.11;100185.72;5033109;28;20208;-82
2024/04/07 00:21:50;;;;;;;1.60;0.77;;;;;;;19.70;43.94;100177.13;5031651;28;20586;-82
2024/04/07 00:24:20;;;;;;;0.77;0.70;;;;;;;19.71;43.74;100174.22;5035374;28;20281;-81
2024/04/07 00:26:56;;;;;;;1.15;0.77;;;;;;;19.77;43.55;100164.59;5033791;28;20299;-82
2024/04/07 00:29:25;;;;;;;2.90;0.90;;;;;;;19.83;43.69;100173.91;5031222;28;20208;-80
2024/04/07 00:31:53;;;;;;;0.80;0.70;;;;;;;19.84;43.64;100162.09;5035516;28;20246;-82
2024/04/07 00:34:27;;;;;;;2.17;0.70;;;;;;;19.83;43.58;100158.53;5031238;28;20216;-81
2024/04/07 00:36:55;;;;;;;0.70;0.60;;;;;;;19.84;43.57;100141.31;5034095;28;20580;-83
2024/04/07 00:39:24;;;;;;;1.30;0.80;;;;;;;19.83;43.53;100141.47;5031987;28;20242;-82
2024/04/07 00:41:50;;;;;;;1.63;0.90;;;;;;;19.85;43.46;100137.59;5037113;28;20227;-81
2024/04/07 00:44:20;;;;;;;2.30;1.00;;;;;;;19.84;43.69;100135.91;5028935;28;20212;-82
2024/04/07 00:46:46;;;;;;;0.70;0.67;;;;;;;19.81;43.54;100140.81;5036475;28;20669;-83
2024/04/07 00:49:20;;;;;;;1.60;0.53;;;;;;;19.76;44.02;100144.84;5035320;28;20219;-82
2024/04/07 00:52:05;;;;;;;1.50;0.63;;;;;;;19.75;43.38;100136.91;5036882;28;20318;-83
2024/04/07 00:54:41;;;;;;;1.43;0.80;;;;;;;19.74;43.44;100127.09;5032672;28;20222;-81
2024/04/07 00:57:17;;;;;;;0.87;0.70;;;;;;;19.74;43.43;100119.84;5023055;28;20208;-83
2024/04/07 00:59:47;;;;;;;2.17;0.63;;;;;;;19.74;43.26;100125.25;5036656;28;20216;-83
2024/04/07 01:02:13;;;;;;;2.47;0.90;;;;;;;19.75;43.11;100132.34;5036086;28;20256;-83
2024/04/07 01:04:42;;;;;;;0.90;0.70;;;;;;;19.77;43.11;100124.06;5037675;28;20216;-82
2024/04/07 01:07:12;;;;;;;1.23;0.60;;;;;;;19.74;43.29;100127.97;5035644;28;20228;-83
2024/04/07 01:09:40;;;;;;;1.63;0.93;;;;;;;19.76;43.16;100127.78;5032180;28;20211;-81
2024/04/07 01:12:12;;;;;;;1.23;0.90;;;;;;;19.80;43.00;100118.34;5035912;28;20220;-83
2024/04/07 01:14:41;;;;;;;1.03;0.93;;;;;;;19.78;43.06;100125.78;5032014;28;20206;-77
2024/04/07 01:17:10;;;;;;;0.87;0.70;;;;;;;19.81;42.87;100121.88;5031612;28;20215;-83
2024/04/07 01:19:40;;;;;;;0.87;0.80;;;;;;;19.83;42.73;100125.28;5036637;28;20774;-82
2024/04/07 01:22:17;;;;;;;1.43;0.77;;;;;;;19.85;42.79;100124.09;5023806;28;20212;-80
2024/04/07 01:24:47;;;;;;;1.63;1.00;;;;;;;19.85;42.68;100126.78;5035544;28;20212;-80
2024/04/07 01:27:13;;;;;;;1.00;0.80;;;;;;;19.89;42.37;100130.81;5026129;28;20321;-79
2024/04/07 01:29:40;;;;;;;1.03;0.70;;;;;;;19.89;42.29;100132.69;5026382;28;20238;-83
2024/04/07 01:32:08;;;;;;;1.17;0.70;;;;;;;19.91;42.38;100139.59;5023801;28;20215;-82
2024/04/07 01:34:35;;;;;;;1.80;0.80;;;;;;;19.92;42.37;100146.69;5036415;28;20279;-79
2024/04/07 01:37:06;;;;;;;1.40;0.97;;;;;;;19.96;41.99;100152.63;5026916;28;20247;-83
2024/04/07 01:39:34;;;;;;;1.10;0.70;;;;;;;19.95;42.27;100153.63;5035792;28;20238;-78
2024/04/07 01:42:01;;;;;;;1.07;0.60;;;;;;;19.94;41.89;100154.66;5029281;28;20243;-80
2024/04/07 01:44:28;;;;;;;1.50;0.80;;;;;;;19.99;42.00;100146.88;5036369;28;20204;-82
2024/04/07 01:46:54;;;;;;;2.77;0.70;;;;;;;20.00;41.81;100135.91;5031123;28;20657;-80
2024/04/07 01:49:21;;;;;;;1.53;0.90;;;;;;;20.03;41.33;100138.28;5030366;28;20243;-79
2024/04/07 01:51:46;;;;;;;1.47;0.70;;;;;;;20.07;41.54;100141.44;5034820;28;20237;-82
2024/04/07 01:54:13;;;;;;;4.00;1.10;;;;;;;20.10;41.51;100146.53;5036006;28;20207;-80
2024/04/07 01:56:39;;;;;;;1.17;0.70;;;;;;;20.13;41.24;100142.63;5035740;28;20259;-78
2024/04/07 01:59:19;;;;;;;3.40;0.90;;;;;;;20.21;40.96;100137.22;5037550;28;20213;-80
2024/04/07 02:01:47;;;;;;;1.73;0.60;;;;;;;20.24;41.03;100150.41;5041042;28;20234;-80
2024/04/07 02:04:16;;;;;;;1.33;0.73;;;;;;;20.30;40.89;100138.88;5040158;28;20235;-80
2024/04/07 02:06:42;;;;;;;1.17;0.90;;;;;;;20.32;40.80;100142.28;5036139;28;20667;-82
2024/04/07 02:09:12;;;;;;;2.53;1.10;;;;;;;20.36;40.95;100146.31;5033606;28;20242;-81
2024/04/07 02:11:37;;;;;;;1.40;0.90;;;;;;;20.36;41.01;100143.63;5036176;28;20302;-81
2024/04/07 02:14:04;;;;;;;2.40;0.70;;;;;;;20.37;40.96;100143.47;5036984;28;20297;-80
2024/04/07 02:16:35;;;;;;;2.10;0.80;;;;;;;20.38;41.18;100147.03;5035813;28;20213;-82
2024/04/07 02:19:04;;;;;;;1.10;0.80;;;;;;;20.40;41.02;100142.31;5036646;28;20208;-82
2024/04/07 02:21:31;;;;;;;2.67;0.70;;;;;;;20.42;41.01;100148.38;5037552;28;20225;-79
2024/04/07 02:24:03;;;;;;;1.37;0.70;;;;;;;20.42;41.05;100153.78;5038369;28;20210;-82
2024/04/07 02:26:29;;;;;;;2.13;0.90;;;;;;;20.41;41.05;100154.81;5033870;28;20230;-79
2024/04/07 02:28:56;;;;;;;1.93;0.80;;;;;;;20.43;40.84;100147.34;5038944;28;20205;-82
2024/04/07 02:31:21;;;;;;;1.70;0.70;;;;;;;20.42;40.77;100156.50;5038141;28;21494;-81
2024/04/07 02:33:50;;;;;;;1.43;0.77;;;;;;;20.40;40.65;100150.41;5039340;28;20255;-81
2024/04/07 02:36:16;;;;;;;1.88;0.73;;;;;;;20.38;40.69;100153.28;5034199;28;20196;-81
2024/04/07 02:38:42;;;;;;;1.40;0.77;;;;;;;20.41;40.56;100162.91;5032506;28;20207;-82
2024/04/07 02:41:08;;;;;;;1.20;0.70;;;;;;;20.42;40.77;100151.09;5037999;28;20874;-81
2024/04/07 02:43:35;;;;;;;1.60;0.80;;;;;;;20.42;40.44;100168.13;5038294;28;20207;-80
2024/04/07 02:48:47;;;;;;;2.53;0.80;;;;;;;20.44;40.59;100178.78;5034118;28;20260;-81
2024/04/07 02:51:17;;;;;;;1.00;0.90;;;;;;;20.43;40.71;100177.09;5037372;28;20835;-82
2024/04/07 02:53:43;;;;;;;0.83;0.70;;;;;;;20.43;40.81;100174.38;5035881;28;20233;-82
2024/04/07 02:56:11;;;;;;;1.03;0.70;;;;;;;20.44;40.83;100176.91;5036307;28;20202;-82
2024/04/07 02:58:36;;;;;;;3.20;0.80;;;;;;;20.43;40.75;100174.38;5036882;28;20665;-83
2024/04/07 03:01:06;;;;;;;1.27;0.90;;;;;;;20.45;40.46;100175.91;5031989;28;20236;-80
2024/04/07 03:03:32;;;;;;;0.73;0.67;;;;;;;20.46;40.59;100174.03;5032221;28;20213;-81
2024/04/07 03:05:59;;;;;;;1.42;0.80;;;;;;;20.44;40.59;100182.34;5030622;28;20225;-80
2024/04/07 03:08:26;;;;;;;1.20;0.80;;;;;;;20.48;40.67;100192.81;5035180;28;20212;-81
2024/04/07 03:10:56;;;;;;;1.27;0.93;;;;;;;20.45;40.75;100196.69;5035398;28;20264;-79
2024/04/07 03:13:22;;;;;;;1.92;1.00;;;;;;;20.46;40.90;100201.09;5032667;28;20217;-80
2024/04/07 03:15:49;;;;;;;1.65;0.90;;;;;;;20.40;40.88;100199.94;5035915;28;20270;-80
2024/04/07 03:18:14;;;;;;;1.10;0.90;;;;;;;20.38;41.04;100201.97;5033941;28;20242;-82
2024/04/07 03:20:44;;;;;;;1.23;0.80;;;;;;;20.37;41.37;100203.00;5032691;28;20259;-83
2024/04/07 03:23:10;;;;;;;1.10;1.00;;;;;;;20.33;41.61;100223.22;5033628;28;20248;-80
2024/04/07 03:25:38;;;;;;;1.33;0.87;;;;;;;20.35;41.01;100223.91;5027844;28;20208;-82
2024/04/07 03:28:05;;;;;;;1.33;0.93;;;;;;;20.32;41.13;100224.25;5033030;28;20224;-82
2024/04/07 03:30:32;;;;;;;2.37;0.90;;;;;;;20.34;41.19;100221.38;5034530;28;20336;-81
2024/04/07 03:32:58;;;;;;;0.90;0.73;;;;;;;20.34;41.57;100226.78;5031969;28;20206;-82
2024/04/07 03:35:25;;;;;;;1.87;0.90;;;;;;;20.30;41.44;100228.13;5036715;28;20898;-79
2024/04/07 03:37:52;;;;;;;1.43;0.90;;;;;;;20.26;41.53;100224.06;5034883;28;21351;-82
2024/04/07 03:40:18;;;;;;;1.57;0.80;;;;;;;20.23;41.57;100221.72;5042142;28;20227;-79
2024/04/07 03:42:50;;;;;;;1.37;0.93;;;;;;;20.22;41.50;100217.34;5031458;28;20250;-82
2024/04/07 03:45:17;;;;;;;2.40;0.80;;;;;;;20.24;41.73;100220.72;5034324;28;20230;-79
2024/04/07 03:47:43;;;;;;;2.93;1.17;;;;;;;20.17;41.68;100217.00;5034337;28;20309;-79
2024/04/07 03:50:10;;;;;;;1.70;1.00;;;;;;;20.15;42.10;100221.72;5035529;28;21106;-81
2024/04/07 03:52:37;;;;;;;4.03;1.00;;;;;;;20.12;41.80;100225.59;5034734;28;20275;-80
2024/04/07 03:55:03;;;;;;;0.93;0.93;;;;;;;20.09;41.96;100239.44;5026359;28;20643;-80
2024/04/07 03:57:30;;;;;;;2.00;1.00;;;;;;;20.07;41.85;100245.03;5034164;28;20222;-79
2024/04/07 03:59:57;;;;;;;1.30;0.80;;;;;;;20.07;42.25;100245.03;5033009;28;20239;-80
2024/04/07 04:02:26;;;;;;;1.30;0.90;;;;;;;20.07;41.83;100255.84;5027617;28;20259;-80
2024/04/07 04:04:56;;;;;;;1.27;1.00;;;;;;;20.05;41.96;100265.16;5034068;28;20310;-80
2024/04/07 04:07:23;;;;;;;1.53;0.97;;;;;;;20.04;42.28;100272.41;5031272;28;20253;-81
2024/04/07 04:09:51;;;;;;;1.67;1.00;;;;;;;20.00;42.41;100276.47;5028773;28;20236;-79
2024/04/07 04:12:18;;;;;;;1.83;0.80;;;;;;;19.95;42.76;100288.78;5032173;28;20218;-81
2024/04/07 04:14:44;;;;;;;1.37;0.90;;;;;;;19.90;42.50;100281.16;5030868;28;20238;-78
2024/04/07 04:17:12;;;;;;;1.10;0.80;;;;;;;19.90;42.15;100283.00;5029931;28;20225;-82
2024/04/07 04:19:38;;;;;;;1.83;1.00;;;;;;;19.87;42.33;100281.50;5034309;28;20292;-81
2024/04/07 04:22:05;;;;;;;1.47;0.97;;;;;;;19.84;42.21;100291.81;5025741;28;20339;-80
2024/04/07 04:24:31;;;;;;;4.03;1.00;;;;;;;19.84;42.20;100297.22;5030531;28;20219;-81
2024/04/07 04:26:58;;;;;;;2.40;0.93;;;;;;;19.78;42.48;100301.41;5028119;28;20656;-81
2024/04/07 04:29:23;;;;;;;2.60;1.20;;;;;;;19.77;42.42;100314.06;5030991;28;20230;-81
2024/04/07 04:31:50;;;;;;;2.07;1.00;;;;;;;19.79;42.09;100310.34;5031182;28;20311;-82
2024/04/07 04:34:17;;;;;;;2.47;1.33;;;;;;;19.79;42.36;100313.91;5033187;28;20203;-81
2024/04/07 04:36:44;;;;;;;2.27;1.03;;;;;;;19.79;42.28;100318.47;5029511;28;20271;-82
2024/04/07 04:39:09;;;;;;;3.87;0.90;;;;;;;19.78;42.14;100323.03;5030730;28;20266;-81
2024/04/07 04:41:36;;;;;;;3.13;0.93;;;;;;;19.83;42.36;100330.66;5030826;28;20647;-82
2024/04/07 04:44:02;;;;;;;4.17;1.00;;;;;;;19.86;42.14;100335.72;5031877;28;20299;-82
2024/04/07 04:46:29;;;;;;;2.00;1.10;;;;;;;19.82;42.33;100343.31;5028245;28;20235;-80
2024/04/07 04:48:55;;;;;;;6.30;1.20;;;;;;;19.82;42.01;100354.13;5032329;28;20298;-80
2024/04/07 04:51:23;;;;;;;2.93;1.10;;;;;;;19.84;42.21;100356.66;5031924;28;20342;-82
2024/04/07 04:53:48;;;;;;;2.20;1.10;;;;;;;19.83;42.27;100372.03;5028515;28;20628;-82
2024/04/07 04:56:15;;;;;;;2.03;0.82;;;;;;;19.82;42.47;100370.34;5027626;28;20291;-82
2024/04/07 04:58:40;;;;;;;1.93;0.80;;;;;;;19.80;42.87;100383.16;5023932;28;20255;-82
2024/04/07 05:01:11;;;;;;;4.63;1.10;;;;;;;19.81;42.87;100381.31;5031048;28;20231;-82
2024/04/07 05:03:37;;;;;;;4.13;1.20;;;;;;;19.79;43.00;100377.91;5030116;28;20200;-84
2024/04/07 05:06:08;;;;;;;1.77;1.00;;;;;;;19.76;42.95;100377.22;5034165;28;20263;-82
2024/04/07 05:08:35;;;;;;;2.10;0.97;;;;;;;19.77;43.03;100389.72;5031638;28;20237;-80
2024/04/07 05:11:04;;;;;;;4.00;1.00;;;;;;;19.76;43.29;100395.28;5031269;28;20319;-80
2024/04/07 05:13:29;;;;;;;2.47;1.10;;;;;;;19.75;43.54;100391.75;5033194;28;20214;-81
2024/04/07 05:15:56;;;;;;;1.50;1.00;;;;;;;19.75;43.70;100401.72;5031709;28;20238;-82
2024/04/07 05:18:22;;;;;;;2.30;1.20;;;;;;;19.71;43.65;100412.00;5034610;28;21519;-82
2024/04/07 05:20:48;;;;;;;3.07;1.07;;;;;;;19.71;43.92;100432.75;5030978;28;20255;-80
2024/04/07 05:23:14;;;;;;;4.17;1.00;;;;;;;19.68;44.45;100446.63;5032944;28;20238;-81
2024/04/07 05:25:42;;;;;;;4.03;1.37;;;;;;;19.67;44.39;100463.81;5024078;28;20779;-82
2024/04/07 05:28:08;;;;;;;2.87;1.03;;;;;;;19.63;44.99;100490.31;5035695;28;20233;-82
2024/04/07 05:30:36;;;;;;;4.37;1.17;;;;;;;19.60;45.37;100506.84;5039047;28;20228;-81
2024/04/07 05:33:02;;;;;;;2.33;1.20;;;;;;;19.56;45.88;100521.66;5038032;28;20240;-83
2024/04/07 05:35:28;;;;;;;3.23;1.27;;;;;;;19.50;46.37;100530.41;5026578;28;20212;-81
2024/04/07 05:37:54;;;;;;;2.63;1.00;;;;;;;19.45;46.67;100526.44;5037335;28;20201;-82
2024/04/07 05:40:21;;;;;;;4.27;1.00;;;;;;;19.39;46.78;100531.47;5031572;28;20736;-82
2024/04/07 05:42:48;;;;;;;2.23;1.00;;;;;;;19.35;47.04;100529.22;5039237;28;20699;-83
2024/04/07 05:45:15;;;;;;;3.70;1.10;;;;;;;19.29;47.49;100530.72;5033309;28;20207;-80
2024/04/07 05:47:41;;;;;;;3.97;1.53;;;;;;;19.25;47.68;100552.78;5035283;28;20233;-82
2024/04/07 05:50:08;;;;;;;2.70;1.10;;;;;;;19.22;48.22;100561.19;5037196;28;20226;-78
2024/04/07 05:52:33;;;;;;;4.10;1.37;;;;;;;19.19;48.48;100566.88;5034408;28;20240;-83
2024/04/07 05:55:00;;;;;;;4.13;1.20;;;;;;;19.16;48.84;100562.66;5036469;28;20226;-83
2024/04/07 05:57:26;;;;;;;4.20;1.20;;;;;;;19.11;49.03;100567.66;5034896;28;20337;-82
2024/04/07 05:59:53;;;;;;;3.10;1.40;;;;;;;19.07;49.67;100558.19;5036112;28;20232;-83
2024/04/07 06:02:19;;;;;;;4.83;1.10;;;;;;;19.03;49.98;100573.81;5042455;28;20230;-81
2024/04/07 06:04:46;;;;;;;3.47;1.20;;;;;;;19.01;50.56;100574.97;5037262;28;20626;-81
2024/04/07 06:07:11;;;;;;;3.77;1.33;;;;;;;18.97;51.15;100589.81;5031568;28;20639;-81
2024/04/07 06:09:38;;;;;;;3.47;1.40;;;;;;;18.94;51.89;100596.34;5029134;28;20275;-83
2024/04/07 06:12:04;;;;;;;3.17;1.20;;;;;;;18.90;52.86;100604.91;5035629;28;20244;-80
2024/04/07 06:14:31;;;;;;;4.70;1.80;;;;;;;18.88;53.68;100623.09;5034493;28;20703;-81
2024/04/07 06:16:58;;;;;;;5.30;1.40;;;;;;;18.86;54.99;100627.78;5038950;28;20298;-81
2024/04/07 06:19:25;;;;;;;4.20;1.60;;;;;;;18.86;55.80;100627.78;5038974;28;20319;-80
2024/04/07 06:21:50;;;;;;;2.97;1.60;;;;;;;18.82;56.18;100631.78;5031833;28;20321;-83
2024/04/07 06:24:17;;;;;;;4.53;1.40;;;;;;;18.80;56.86;100623.84;5031692;28;20244;-83
2024/04/07 06:26:42;;;;;;;2.57;1.20;;;;;;;18.80;57.13;100620.31;5032294;28;20461;-81
2024/04/07 06:29:09;;;;;;;4.50;1.30;;;;;;;18.78;57.27;100643.88;5034521;28;20296;-83
2024/04/07 06:31:35;;;;;;;4.70;1.27;;;;;;;18.78;57.63;100650.13;5034272;28;20732;-84
2024/04/07 06:34:03;;;;;;;3.60;1.27;;;;;;;18.75;58.45;100653.13;5035082;28;20220;-84
2024/04/07 06:36:29;;;;;;;4.07;1.20;;;;;;;18.73;59.00;100653.28;5032260;28;20199;-82
2024/04/07 06:38:56;;;;;;;3.17;1.10;;;;;;;18.73;59.39;100657.81;5036531;28;20209;-82
2024/04/07 06:41:21;;;;;;;6.10;1.83;;;;;;;18.73;59.51;100668.59;5040253;28;20358;-82
2024/04/07 06:43:48;;;;;;;2.90;1.50;;;;;;;18.71;60.00;100655.28;5035847;28;20240;-83
2024/04/07 06:46:13;;;;;;;2.57;1.67;;;;;;;18.66;59.53;100662.94;5030035;28;20205;-80
2024/04/07 06:48:40;;;;;;;4.50;1.27;;;;;;;18.66;59.62;100662.94;5034415;28;20311;-80
2024/04/07 06:51:07;;;;;;;3.87;1.30;;;;;;;18.66;59.37;100668.34;5037762;28;20324;-81
2024/04/07 06:53:34;;;;;;;8.67;1.60;;;;;;;18.68;59.58;100693.34;5031267;28;20214;-80
2024/04/07 06:56:00;;;;;;;2.47;1.30;;;;;;;18.69;58.71;100697.72;5036167;28;20205;-80
2024/04/07 06:58:30;;;;;;;2.37;1.20;;;;;;;18.70;58.65;100702.13;5039527;28;20236;-81
2024/04/07 07:00:56;;;;;;;3.50;1.20;;;;;;;18.72;59.07;100700.13;5037261;28;20237;-80
2024/04/07 07:03:23;;;;;;;3.60;1.20;;;;;;;18.77;58.50;100688.06;5036357;28;20804;-82
2024/04/07 07:05:49;;;;;;;2.63;1.10;;;;;;;18.77;57.76;100691.59;5033462;28;20309;-80
2024/04/07 07:08:18;;;;;;;3.80;1.10;;;;;;;18.81;57.84;100708.34;5034005;28;20264;-83
2024/04/07 07:10:52;;;;;;;2.63;0.90;;;;;;;18.87;57.99;100700.50;5030910;28;20228;-82
2024/04/07 07:13:19;;;;;;;3.30;1.93;;;;;;;18.92;58.01;100716.25;5033685;28;20195;-80
2024/04/07 07:15:44;;;;;;;3.30;1.53;;;;;;;18.94;58.80;100738.53;5033981;28;20300;-82
2024/04/07 07:18:11;;;;;;;3.07;1.00;;;;;;;18.93;56.89;100742.22;5038537;28;20287;-81
2024/04/07 07:20:37;;;;;;;2.10;0.80;;;;;;;18.94;55.97;100730.44;5034441;28;20760;-80
2024/04/07 07:23:04;;;;;;;3.87;1.20;;;;;;;18.95;55.79;100738.41;5035821;28;20248;-79
2024/04/07 07:25:31;;;;;;;2.17;0.80;;;;;;;18.99;56.05;100720.03;5032145;28;20212;-83
2024/04/07 07:27:58;;;;;;;1.97;0.63;;;;;;;19.02;55.85;100727.81;5030547;28;20232;-81
2024/04/07 07:30:23;;;;;;;4.00;0.87;;;;;;;19.05;56.28;100736.47;5033710;28;20403;-81
2024/04/07 07:32:51;;;;;;;1.40;0.90;;;;;;;19.12;56.05;100736.75;5034724;28;20296;-80
2024/04/07 07:35:17;;;;;;;2.53;0.80;;;;;;;19.18;56.46;100735.28;5033044;28;20204;-81
2024/04/07 07:37:43;;;;;;;2.07;0.80;;;;;;;19.24;57.01;100749.03;5036269;28;20778;-82
2024/04/07 07:40:10;;;;;;;3.43;1.57;;;;;;;19.32;57.51;100761.81;5034289;28;20260;-80
2024/04/07 07:42:38;;;;;;;2.60;1.10;;;;;;;19.37;56.23;100743.28;5027881;28;20209;-80
2024/04/07 07:45:09;;;;;;;3.90;0.87;;;;;;;19.39;55.30;100746.66;5033259;28;20209;-81
2024/04/07 07:47:38;;;;;;;3.90;1.00;;;;;;;19.39;55.07;100739.41;5029524;28;20224;-83
2024/04/07 07:50:14;;;;;;;3.10;0.93;;;;;;;19.43;55.44;100730.03;5033194;28;20219;-81
2024/04/07 07:52:41;;;;;;;3.67;0.87;;;;;;;19.47;54.92;100727.88;5027847;28;20289;-82
2024/04/07 07:55:06;;;;;;;3.07;1.00;;;;;;;19.54;54.52;100728.97;5035463;28;20291;-81
2024/04/07 07:57:33;;;;;;;2.20;1.10;;;;;;;19.59;54.98;100729.38;5034533;28;20254;-82
2024/04/07 08:00:00;;;;;;;2.43;1.00;;;;;;;19.62;54.46;100734.47;5028314;28;20742;-82
2024/04/07 08:02:29;;;;;;;2.10;0.70;;;;;;;19.68;54.16;100719.50;5027303;28;20213;-82
2024/04/07 08:04:55;;;;;;;2.27;0.77;;;;;;;19.62;53.29;100730.91;5030472;28;20308;-81
2024/04/07 08:07:21;;;;;;;1.63;0.87;;;;;;;19.64;53.10;100701.91;5033708;28;20272;-83
2024/04/07 08:09:47;;;;;;;2.87;0.73;;;;;;;19.67;53.85;100691.63;5028542;28;20236;-82
2024/04/07 08:12:14;;;;;;;1.67;0.77;;;;;;;19.71;54.97;100695.72;5033603;28;20212;-82
2024/04/07 08:14:41;;;;;;;3.47;0.90;;;;;;;19.79;54.42;100683.28;5032502;28;20241;-82
2024/04/07 08:17:09;;;;;;;1.50;0.70;;;;;;;19.85;53.96;100680.81;5033008;28;20213;-79
2024/04/07 08:19:36;;;;;;;1.83;0.80;;;;;;;19.91;54.89;100680.16;5035876;28;20306;-81
2024/04/07 08:22:03;;;;;;;2.13;1.00;;;;;;;20.00;54.46;100664.88;5031225;28;20282;-79
2024/04/07 08:24:30;;;;;;;2.20;0.87;;;;;;;20.01;53.00;100666.59;5027236;28;20228;-79
2024/04/07 08:26:56;;;;;;;2.90;0.73;;;;;;;20.06;52.72;100688.59;5034539;28;20208;-82
2024/04/07 08:29:22;;;;;;;2.70;0.90;;;;;;;20.09;53.39;100689.09;5031607;28;20294;-81
2024/04/07 08:31:50;;;;;;;1.83;0.63;;;;;;;20.15;52.72;100689.50;5031325;28;20252;-80
2024/04/07 08:34:17;;;;;;;1.17;0.60;;;;;;;20.17;52.04;100692.88;5034199;28;20282;-81
2024/04/07 08:36:44;;;;;;;1.52;0.57;;;;;;;20.18;51.27;100703.53;5030935;28;20207;-82
2024/04/07 08:39:11;;;;;;;1.75;0.55;;;;;;;20.21;51.61;100695.13;5034748;28;20292;-82
2024/04/07 08:41:36;;;;;;;1.77;0.70;;;;;;;20.27;51.45;100704.44;5030314;28;20259;-81
2024/04/07 08:44:03;;;;;;;2.00;0.50;;;;;;;20.32;51.84;100707.53;5034834;28;20202;-80
2024/04/07 08:46:30;;;;;;;2.27;0.67;;;;;;;20.37;52.34;100694.41;5034330;28;20209;-83
2024/04/07 08:48:59;;;;;;;1.30;0.65;;;;;;;20.43;52.91;100723.50;5032881;28;20264;-78
2024/04/07 08:51:26;;;;;;;1.48;0.60;;;;;;;20.46;53.17;100742.13;5024178;28;20320;-83
2024/04/07 08:53:53;;;;;;;2.63;0.63;;;;;;;20.47;52.90;100727.59;5034777;28;20226;-82
2024/04/07 08:56:19;;;;;;;2.35;0.60;;;;;;;20.49;51.65;100731.00;5028902;28;20245;-81
2024/04/07 08:58:46;;;;;;;0.52;0.52;;;;;;;20.48;51.89;100725.75;5033729;28;20649;-82
2024/04/07 09:01:17;;;;;;;4.45;0.73;;;;;;;20.53;53.23;100742.38;5031833;28;20282;-82
2024/04/07 09:03:44;;;;;;;1.58;0.63;;;;;;;20.51;51.59;100733.56;5029040;28;20204;-84
2024/04/07 09:06:10;;;;;;;1.25;0.80;;;;;;;20.55;51.01;100724.13;5027179;28;20248;-80
2024/04/07 09:08:38;;;;;;;2.20;0.60;;;;;;;20.52;51.61;100714.47;5036828;28;20245;-83
2024/04/07 09:11:03;;;;;;;2.72;0.80;;;;;;;20.56;52.08;100715.00;5030974;28;20298;-81
2024/04/07 09:13:30;;;;;;;3.43;0.67;;;;;;;20.59;51.85;100731.78;5033713;28;20209;-83
2024/04/07 09:15:57;;;;;;;2.15;0.73;;;;;;;20.66;51.74;100731.94;5024365;28;20221;-81
2024/04/07 09:18:27;;;;;;;3.17;0.95;;;;;;;20.72;51.49;100726.75;5034604;28;20209;-82
2024/04/07 09:20:53;;;;;;;2.77;0.70;;;;;;;20.74;51.45;100721.19;5030537;28;20287;-83
2024/04/07 09:23:20;;;;;;;3.80;0.90;;;;;;;20.77;51.19;100720.88;5031100;28;20217;-81
2024/04/07 09:25:49;;;;;;;1.90;0.80;;;;;;;20.82;51.79;100720.38;5031497;28;20214;-82
2024/04/07 09:28:17;;;;;;;2.15;0.80;;;;;;;20.90;51.69;100731.25;5027506;28;20239;-82
2024/04/07 09:30:44;;;;;;;1.90;0.80;;;;;;;21.00;51.72;100735.53;5032722;28;20279;-82
2024/04/07 09:33:09;;;;;;;2.95;0.90;;;;;;;21.04;50.79;100744.16;5032013;28;20240;-83
2024/04/07 09:35:36;;;;;;;1.63;0.77;;;;;;;21.05;51.43;100738.59;5032590;28;20201;-81
2024/04/07 09:38:02;;;;;;;3.03;1.23;;;;;;;21.05;51.16;100737.75;5030844;28;20241;-83
2024/04/07 09:40:29;;;;;;;1.95;0.90;;;;;;;21.08;50.92;100727.44;5024201;28;20222;-82
2024/04/07 09:42:59;;;;;;;2.65;0.80;;;;;;;21.15;50.45;100722.19;5026709;28;20296;-82
2024/04/07 09:45:26;;;;;;;3.05;0.82;;;;;;;21.11;50.03;100732.53;5028619;28;20210;-82
2024/04/07 09:48:02;;;;;;;3.25;0.90;;;;;;;21.17;50.28;100731.00;5034472;28;20256;-82
2024/04/07 09:50:39;;;;;;;3.58;1.00;;;;;;;21.28;51.05;100736.19;5025662;28;20965;-82
2024/04/07 09:53:13;;;;;;;2.42;1.00;;;;;;;21.43;50.99;100737.25;5027991;28;20304;-81
2024/04/07 09:55:43;;;;;;;1.70;1.17;;;;;;;21.53;51.38;100741.66;5028077;28;20226;-83
2024/04/07 09:58:13;;;;;;;1.45;1.02;;;;;;;21.67;49.92;100739.19;5031664;28;20296;-82
2024/04/07 10:00:41;;;;;;;4.07;1.20;;;;;;;21.74;51.63;100740.19;5031329;28;20217;-82
2024/04/07 10:03:07;;;;;;;3.25;1.25;;;;;;;21.85;51.68;100733.59;5039053;28;20237;-81
2024/04/07 10:05:34;;;;;;;4.15;1.10;;;;;;;21.87;49.07;100736.97;5037803;28;20198;-80
2024/04/07 10:07:59;;;;;;;3.08;1.33;;;;;;;21.95;50.15;100741.56;5034617;28;20230;-79
2024/04/07 10:10:26;;;;;;;4.30;1.58;;;;;;;22.03;49.05;100744.34;5034793;28;20817;-82
2024/04/07 10:12:53;;;;;;;5.85;1.55;;;;;;;22.08;49.98;100748.22;5033560;28;20217;-82
2024/04/07 10:15:23;;;;;;;4.47;1.67;;;;;;;22.15;49.39;100749.25;5030040;28;21380;-79
2024/04/07 10:17:49;;;;;;;3.42;1.15;;;;;;;22.20;48.71;100745.19;5035262;28;20205;-78
2024/04/07 10:20:16;;;;;;;2.92;1.15;;;;;;;22.25;48.26;100754.47;5034635;28;20229;-79
2024/04/07 10:22:42;;;;;;;5.20;1.33;;;;;;;22.14;46.47;100747.53;5034259;28;20265;-79
2024/04/07 10:25:10;;;;;;;2.63;1.00;;;;;;;22.20;47.23;100756.88;5034490;28;21471;-78
2024/04/07 10:27:42;;;;;;;2.65;1.13;;;;;;;22.27;46.75;100751.59;5035948;28;20292;-79
2024/04/07 10:30:11;;;;;;;2.30;0.90;;;;;;;22.35;46.27;100746.19;5034920;28;20233;-78
2024/04/07 10:32:39;;;;;;;3.63;1.10;;;;;;;22.39;46.54;100733.97;5038186;28;20263;-79
2024/04/07 10:35:08;;;;;;;2.75;1.05;;;;;;;22.45;46.61;100730.56;5034371;28;20237;-77
2024/04/07 10:37:35;;;;;;;3.83;1.08;;;;;;;22.51;46.61;100727.16;5029053;28;20252;-80
2024/04/07 10:40:05;;;;;;;4.30;1.30;;;;;;;22.54;46.06;100740.41;5035413;28;20304;-81
2024/04/07 10:42:31;;;;;;;3.08;1.27;;;;;;;22.58;45.61;100732.72;5035213;28;20228;-80
2024/04/07 10:44:58;;;;;;;4.18;1.45;;;;;;;22.62;45.67;100729.50;5036621;28;20679;-81
2024/04/07 10:47:24;;;;;;;4.47;1.00;;;;;;;22.72;45.32;100724.75;5031300;28;20237;-81
2024/04/07 10:49:52;;;;;;;1.77;0.88;;;;;;;22.73;45.55;100737.31;5038276;28;20241;-80
2024/04/07 10:52:26;;;;;;;3.15;1.10;;;;;;;22.76;45.33;100728.78;5039141;28;20210;-81
2024/04/07 10:54:54;;;;;;;1.77;0.95;;;;;;;22.88;45.71;100723.03;5027103;28;20234;-81
2024/04/07 10:57:20;;;;;;;1.55;0.98;;;;;;;22.96;44.86;100733.84;5038478;28;20237;-81
2024/04/07 10:59:47;;;;;;;1.90;0.82;;;;;;;22.99;44.45;100728.06;5035674;28;20272;-80
2024/04/07 11:02:12;;;;;;;2.00;0.93;;;;;;;23.05;43.94;100711.06;5037476;28;20666;-82
2024/04/07 11:04:41;;;;;;;2.78;0.90;;;;;;;23.07;42.90;100711.75;5038389;28;20201;-80
2024/04/07 11:07:09;;;;;;;2.45;0.80;;;;;;;23.08;42.90;100714.28;5026043;28;20305;-81
2024/04/07 11:09:36;;;;;;;1.77;0.80;;;;;;;23.07;42.89;100725.34;5035473;28;20225;-80
2024/04/07 11:12:02;;;;;;;5.35;0.77;;;;;;;23.13;43.37;100711.88;5027137;28;20318;-79
2024/04/07 11:14:31;;;;;;;3.03;1.50;;;;;;;23.18;43.01;100712.19;5032327;28;20697;-80
2024/04/07 11:17:03;;;;;;;1.60;0.70;;;;;;;23.27;42.64;100723.03;5032525;28;20238;-81
2024/04/07 11:19:31;;;;;;;3.20;0.70;;;;;;;23.28;42.11;100731.03;5029888;28;20225;-81
2024/04/07 11:21:57;;;;;;;4.22;1.30;;;;;;;23.32;41.86;100734.19;5031984;28;20738;-80
2024/04/07 11:24:25;;;;;;;3.20;0.70;;;;;;;23.37;42.03;100738.09;5032083;28;20214;-79
2024/04/07 11:26:51;;;;;;;3.33;1.10;;;;;;;23.43;42.56;100739.25;5033102;28;20302;-80
2024/04/07 11:29:18;;;;;;;3.30;1.00;;;;;;;23.45;42.66;100738.06;5038000;28;20312;-81